Time;durP1;ratioP1;P1;durP2;ratioP2;P2;SDS_P1;SDS_P2;PMS_P1;PMS_P2;Temp;Humidity;BMP_temperature;BMP_pressure;BME280_temperature;BME280_humidity;BME280_pressure;Samples;Min_cycle;Max_cycle;Signal;HPM_P1;HPM_P2
2021/08/03 00:01:54;;;;;;;;;;;;;;;17.44;82.93;98675.64;1873384;76;20097;-60
2021/08/03 00:04:42;;;;;;;;;;;;;;;17.39;83.24;98676.18;1872548;76;20216;-62
2021/08/03 00:07:21;;;;;;;;;;;;;;;17.38;83.52;98682.72;1949701;73;20093;-61
2021/08/03 00:23:21;;;;;;;;;;;;;;;17.35;83.77;98684.53;1713500;82;20124;-61
2021/08/03 00:26:30;;;;;;;;;;;;;;;17.38;83.89;98684.02;1876149;76;20101;-61
2021/08/03 00:39:29;;;;;;;;;;;;;;;17.39;83.13;98686.61;1921724;74;20201;-61
2021/08/03 00:42:05;;;;;;;;;;;;;;;17.34;83.18;98677.58;1873601;76;20208;-62
2021/08/03 00:44:45;;;;;;;;;;;;;;;17.32;83.36;98683.27;1892787;76;20101;-61
2021/08/03 00:47:20;;;;;;;;;;;;;;;17.31;83.26;98678.95;1873534;76;20093;-60
2021/08/03 00:50:03;;;;;;;;;;;;;;;17.29;83.23;98679.42;1892827;76;20117;-60
2021/08/03 00:52:37;;;;;;;;;;;;;;;17.28;83.27;98685.99;1873494;76;20097;-61
2021/08/03 00:55:12;;;;;;;;;;;;;;;17.25;83.31;98686.03;1892805;76;20350;-60
2021/08/03 00:57:49;;;;;;;;;;;;;;;17.22;83.32;98689.56;1892762;76;20355;-61
2021/08/03 01:00:24;;;;;;;;;;;;;;;17.18;83.45;98689.68;1892799;76;20215;-62
2021/08/03 01:13:43;;;;;;;;;;;;;;;17.21;83.84;98703.50;1813051;78;20216;-63
2021/08/03 01:16:57;;;;;;;;;;;;;;;17.25;83.95;98708.20;1949575;73;20101;-62
2021/08/03 01:19:50;;;;;;;;;;;;;;;17.22;83.96;98713.03;1873433;76;20216;-60
2021/08/03 01:22:46;;;;;;;;;;;;;;;17.22;83.79;98712.17;1873592;76;20204;-59
2021/08/03 01:26:06;;;;;;;;;;;;;;;17.18;84.00;98717.91;1892786;76;20298;-60
2021/08/03 01:28:47;;;;;;;;;;;;;;;17.07;83.95;98709.00;1873442;76;20200;-61
2021/08/03 01:31:44;;;;;;;;;;;;;;;17.01;84.18;98719.53;1892640;76;20444;-61
2021/08/03 01:34:23;;;;;;;;;;;;;;;16.97;84.18;98724.83;1892654;76;20096;-62
2021/08/03 01:47:24;;;;;;;;;;;;;;;16.87;84.82;98742.41;1915303;74;20201;-64
2021/08/03 01:50:00;;;;;;;;;;;;;;;16.85;84.93;98748.09;1892708;76;20093;-62
2021/08/03 01:53:04;;;;;;;;;;;;;;;16.82;85.13;98752.05;1892638;76;20101;-61
2021/08/03 01:55:40;;;;;;;;;;;;;;;16.75;85.34;98746.05;1873460;76;20173;-60
2021/08/03 02:11:34;;;;;;;;;;;;;;;16.72;85.53;98766.95;1652496;85;20399;-61
2021/08/03 02:14:09;;;;;;;;;;;;;;;16.79;85.41;98767.72;1892822;76;20204;-63
2021/08/03 02:17:04;;;;;;;;;;;;;;;16.76;85.42;98769.91;1873467;76;20140;-61
2021/08/03 02:20:01;;;;;;;;;;;;;;;16.74;85.46;98772.13;1892752;76;20100;-61
2021/08/03 02:22:57;;;;;;;;;;;;;;;16.66;85.54;98770.95;1892688;76;20104;-62
2021/08/03 02:25:32;;;;;;;;;;;;;;;16.61;85.76;98774.95;1873488;76;20351;-61
2021/08/03 02:28:09;;;;;;;;;;;;;;;16.59;86.02;98768.02;1892756;76;20101;-61
2021/08/03 02:30:46;;;;;;;;;;;;;;;16.59;86.14;98776.72;1873493;76;20212;-62
2021/08/03 02:33:44;;;;;;;;;;;;;;;16.56;86.36;98778.50;1873458;76;20101;-61
2021/08/03 02:36:21;;;;;;;;;;;;;;;16.52;86.49;98773.80;1873413;76;20101;-62
2021/08/03 02:39:03;;;;;;;;;;;;;;;16.49;86.54;98784.27;1872751;76;20450;-65
2021/08/03 02:41:38;;;;;;;;;;;;;;;16.46;86.75;98783.88;1853660;77;20459;-62
2021/08/03 02:44:13;;;;;;;;;;;;;;;16.44;86.75;98787.39;1892691;76;20211;-61
2021/08/03 02:57:19;;;;;;;;;;;;;;;16.48;87.03;98791.20;1921034;74;20304;-61
2021/08/03 02:59:56;;;;;;;;;;;;;;;16.54;86.82;98795.47;1873408;76;20459;-61
2021/08/03 03:02:33;;;;;;;;;;;;;;;16.56;86.66;98794.98;1873363;76;20102;-61
2021/08/03 03:05:29;;;;;;;;;;;;;;;16.60;86.45;98796.67;1873342;76;20101;-63
2021/08/03 03:08:15;;;;;;;;;;;;;;;16.62;86.32;98800.56;1873373;76;20098;-62
2021/08/03 03:10:53;;;;;;;;;;;;;;;16.60;86.25;98801.88;1892768;76;20346;-60
2021/08/03 03:13:30;;;;;;;;;;;;;;;16.58;86.17;98804.09;1873573;76;20451;-61
2021/08/03 03:16:06;;;;;;;;;;;;;;;16.57;86.32;98804.54;1873586;76;20204;-60
2021/08/03 03:19:01;;;;;;;;;;;;;;;16.58;86.38;98807.55;1873321;76;20213;-62
2021/08/03 03:21:36;;;;;;;;;;;;;;;16.60;86.43;98801.88;1873503;76;20097;-62
2021/08/03 03:24:13;;;;;;;;;;;;;;;16.64;86.44;98805.31;1892846;76;20097;-62
2021/08/03 03:37:50;;;;;;;;;;;;;;;16.83;85.56;98818.92;1832364;77;20121;-61
2021/08/03 03:40:26;;;;;;;;;;;;;;;16.88;85.49;98821.86;1892765;76;20354;-62
2021/08/03 03:43:01;;;;;;;;;;;;;;;16.94;85.24;98822.19;1866997;76;20272;-61
2021/08/03 03:45:36;;;;;;;;;;;;;;;16.97;85.19;98829.09;1890970;76;20362;-61
2021/08/03 04:01:30;;;;;;;;;;;;;;;17.22;84.12;98840.81;1738862;79;20156;-62
2021/08/03 04:14:30;;;;;;;;;;;;;;;17.42;83.53;98850.89;1941764;74;20209;-62
2021/08/03 04:17:11;;;;;;;;;;;;;;;17.46;83.42;98849.96;1872542;76;20367;-62
2021/08/03 04:19:45;;;;;;;;;;;;;;;17.54;83.21;98855.03;1873451;76;20216;-62
2021/08/03 04:22:20;;;;;;;;;;;;;;;17.63;82.98;98851.38;1873479;76;20098;-62
2021/08/03 04:25:37;;;;;;;;;;;;;;;17.68;82.54;98846.92;1855801;76;20449;-63
2021/08/03 04:28:13;;;;;;;;;;;;;;;17.74;82.43;98852.89;1873428;76;20204;-61
2021/08/03 04:42:00;;;;;;;;;;;;;;;18.19;80.60;98854.60;1969279;72;20384;-63
2021/08/03 04:45:04;;;;;;;;;;;;;;;18.31;80.23;98862.17;1949668;73;20207;-64
2021/08/03 05:01:02;;;;;;;;;;;;;;;18.89;77.83;98867.84;1759558;80;20142;-64
2021/08/03 05:14:26;;;;;;;;;;;;;;;19.53;75.58;98866.64;1850456;77;20099;-63
2021/08/03 05:28:08;;;;;;;;;;;;;;;20.16;73.08;98867.07;1897509;75;20559;-63
2021/08/03 05:41:35;;;;;;;;;;;;;;;24.21;61.69;98881.31;1848885;77;20243;-62
2021/08/03 05:44:44;;;;;;;;;;;;;;;26.10;55.94;98886.97;1892592;76;20101;-63
2021/08/03 05:47:19;;;;;;;;;;;;;;;27.77;50.64;98893.34;1949657;73;20351;-63
2021/08/03 05:50:22;;;;;;;;;;;;;;;28.78;47.31;98897.67;1872424;76;20398;-64
2021/08/03 05:53:19;;;;;;;;;;;;;;;30.27;45.08;98905.39;1957186;72;20392;-63
2021/08/03 05:56:10;;;;;;;;;;;;;;;31.76;41.06;98916.59;1873424;76;20205;-64
2021/08/03 05:59:17;;;;;;;;;;;;;;;32.44;38.37;98929.52;1875509;76;20212;-63
2021/08/03 06:02:05;;;;;;;;;;;;;;;32.77;38.04;98940.30;1872655;76;20212;-62
2021/08/03 06:04:58;;;;;;;;;;;;;;;33.67;36.05;98945.38;1892644;76;20227;-64
2021/08/03 06:07:59;;;;;;;;;;;;;;;34.42;34.65;98953.61;1882794;76;20236;-64
2021/08/03 06:10:34;;;;;;;;;;;;;;;34.89;33.28;98947.23;1873396;76;20136;-63
2021/08/03 06:13:35;;;;;;;;;;;;;;;35.49;32.23;98961.89;1872535;76;20213;-64
2021/08/03 06:16:29;;;;;;;;;;;;;;;35.89;31.06;98968.11;1892673;76;20453;-62
2021/08/03 06:19:25;;;;;;;;;;;;;;;36.16;31.13;98979.47;1862100;76;20386;-62
2021/08/03 06:23:25;;;;;;;;;;;;;;;36.87;29.77;98985.11;1810336;78;20117;-64
2021/08/03 06:26:17;;;;;;;;;;;;;;;37.47;28.68;99002.56;1855675;76;20234;-62
2021/08/03 06:39:16;;;;;;;;;;;;;;;39.85;25.24;99014.91;1850459;77;20214;-63
2021/08/03 06:41:53;;;;;;;;;;;;;;;39.98;25.00;99019.80;1949703;73;20093;-65
2021/08/03 06:45:00;;;;;;;;;;;;;;;40.56;24.30;99025.95;1892471;76;20382;-62
2021/08/03 06:48:01;;;;;;;;;;;;;;;41.05;23.57;99023.05;1859949;76;20240;-64
2021/08/03 06:51:06;;;;;;;;;;;;;;;41.21;23.51;99031.09;1860836;76;20475;-61
2021/08/03 06:53:46;;;;;;;;;;;;;;;41.91;22.63;99039.23;1873218;76;20101;-63
2021/08/03 06:56:24;;;;;;;;;;;;;;;42.38;21.33;99049.86;1892671;76;20219;-65
2021/08/03 06:59:14;;;;;;;;;;;;;;;42.15;21.51;99049.06;1873421;76;20216;-64
2021/08/03 07:01:58;;;;;;;;;;;;;;;41.71;21.47;99041.64;1873528;76;20101;-64
2021/08/03 07:05:02;;;;;;;;;;;;;;;41.02;22.38;99039.66;1892561;76;20354;-61
2021/08/03 07:07:58;;;;;;;;;;;;;;;40.71;22.08;99040.47;1867485;76;20369;-64
2021/08/03 07:21:26;;;;;;;;;;;;;;;40.18;22.96;99029.73;1860318;77;20380;-62
2021/08/03 07:24:48;;;;;;;;;;;;;;;40.20;23.16;99036.30;1857303;76;20232;-63
2021/08/03 07:27:30;;;;;;;;;;;;;;;40.43;22.93;99041.37;1872498;76;20098;-63
2021/08/03 07:30:18;;;;;;;;;;;;;;;40.91;22.53;99040.87;1892382;76;20254;-63
2021/08/03 07:32:57;;;;;;;;;;;;;;;41.01;22.46;99039.30;1872426;76;20379;-62
2021/08/03 07:35:42;;;;;;;;;;;;;;;41.24;22.33;99043.95;1892753;76;20166;-62
2021/08/03 07:38:17;;;;;;;;;;;;;;;41.32;21.73;99040.70;1873371;76;20204;-62
2021/08/03 07:41:11;;;;;;;;;;;;;;;40.83;21.98;99043.62;1873301;76;20102;-63
2021/08/03 07:44:06;;;;;;;;;;;;;;;40.93;21.61;99043.41;1892682;76;20355;-61
2021/08/03 07:46:41;;;;;;;;;;;;;;;41.08;21.87;99037.58;1892734;76;20215;-63
2021/08/03 07:49:36;;;;;;;;;;;;;;;41.32;21.50;99039.83;1883948;75;20212;-64
2021/08/03 07:52:10;;;;;;;;;;;;;;;40.32;22.15;99041.21;1873254;76;20286;-62
2021/08/03 07:54:45;;;;;;;;;;;;;;;39.30;23.26;99037.08;1873418;76;20097;-64
2021/08/03 07:57:22;;;;;;;;;;;;;;;39.00;23.58;99030.42;1892745;76;20105;-62
2021/08/03 07:59:56;;;;;;;;;;;;;;;39.38;22.98;99033.06;1892730;76;20097;-62
2021/08/03 08:02:51;;;;;;;;;;;;;;;39.35;23.34;99030.71;1892734;76;20101;-63
2021/08/03 08:05:46;;;;;;;;;;;;;;;39.90;23.17;99031.45;1892649;76;20097;-63
2021/08/03 08:08:20;;;;;;;;;;;;;;;40.46;22.26;99033.42;1873446;76;20307;-64
2021/08/03 08:11:01;;;;;;;;;;;;;;;40.13;22.14;99026.70;1853507;77;20214;-64
2021/08/03 08:13:35;;;;;;;;;;;;;;;39.62;22.57;99030.08;1892715;76;20469;-65
2021/08/03 08:16:10;;;;;;;;;;;;;;;39.39;22.05;99028.03;1873397;76;20093;-62
2021/08/03 08:18:44;;;;;;;;;;;;;;;39.47;22.01;99024.49;1892730;76;20208;-63
2021/08/03 08:21:22;;;;;;;;;;;;;;;39.08;21.91;99029.95;1873413;76;20290;-64
2021/08/03 08:23:57;;;;;;;;;;;;;;;38.26;23.16;99022.42;1873401;76;20093;-64
2021/08/03 08:26:32;;;;;;;;;;;;;;;37.72;23.89;99020.66;1873458;76;20212;-64
2021/08/03 08:29:06;;;;;;;;;;;;;;;36.73;25.36;99010.66;1873388;76;20147;-64
2021/08/03 08:31:41;;;;;;;;;;;;;;;36.97;25.20;99013.78;1873408;76;20093;-63
2021/08/03 08:34:15;;;;;;;;;;;;;;;37.11;25.50;99010.63;1873611;76;20097;-64
2021/08/03 08:36:51;;;;;;;;;;;;;;;37.27;25.14;99010.78;1873444;76;20097;-64
2021/08/03 08:39:25;;;;;;;;;;;;;;;37.64;24.72;99008.98;1873426;76;20105;-63
2021/08/03 08:42:00;;;;;;;;;;;;;;;37.85;24.53;99011.33;1873426;76;20343;-64
2021/08/03 08:44:41;;;;;;;;;;;;;;;37.91;24.50;99010.69;1872542;76;20097;-64
2021/08/03 08:47:37;;;;;;;;;;;;;;;38.11;24.03;99009.52;1892690;76;20350;-62
2021/08/03 08:50:31;;;;;;;;;;;;;;;38.20;23.99;99003.70;1873195;76;20347;-64
2021/08/03 08:53:07;;;;;;;;;;;;;;;38.46;23.86;99007.74;1892796;76;20258;-65
2021/08/03 08:55:42;;;;;;;;;;;;;;;38.44;23.08;99001.66;1892688;76;20334;-62
2021/08/03 08:58:37;;;;;;;;;;;;;;;36.70;24.59;98997.51;1873130;76;20351;-64
2021/08/03 09:01:31;;;;;;;;;;;;;;;36.06;25.89;98995.58;1843483;77;20172;-63
2021/08/03 09:04:21;;;;;;;;;;;;;;;36.34;26.00;98992.48;1873516;76;20205;-62
2021/08/03 09:07:18;;;;;;;;;;;;;;;36.53;25.55;98989.35;1873507;76;20208;-62
2021/08/03 09:10:11;;;;;;;;;;;;;;;36.69;25.70;98983.73;1892803;76;20211;-64
2021/08/03 09:12:47;;;;;;;;;;;;;;;36.57;25.79;98992.14;1873536;76;20246;-63
2021/08/03 09:15:22;;;;;;;;;;;;;;;36.49;26.05;98982.09;1873429;76;20270;-63
2021/08/03 09:18:22;;;;;;;;;;;;;;;36.13;25.96;98979.27;1892699;76;20207;-62
2021/08/03 09:20:58;;;;;;;;;;;;;;;34.88;27.37;98971.48;1873429;76;20097;-63
2021/08/03 09:23:54;;;;;;;;;;;;;;;33.75;28.58;98964.80;1892815;76;20204;-62
2021/08/03 09:26:49;;;;;;;;;;;;;;;32.27;30.05;98952.71;1873296;76;20204;-63
2021/08/03 09:29:24;;;;;;;;;;;;;;;31.51;31.45;98947.45;1892722;76;20100;-63
2021/08/03 09:31:59;;;;;;;;;;;;;;;30.95;31.72;98940.02;1873445;76;20101;-64
2021/08/03 09:34:33;;;;;;;;;;;;;;;30.61;32.42;98942.45;1873444;76;20097;-63
2021/08/03 09:37:11;;;;;;;;;;;;;;;30.56;32.74;98935.73;1873282;76;20098;-61
2021/08/03 09:39:47;;;;;;;;;;;;;;;30.47;33.15;98930.59;1873434;76;20216;-62
2021/08/03 09:42:24;;;;;;;;;;;;;;;30.05;34.38;98936.66;1873259;76;20358;-62
2021/08/03 09:45:02;;;;;;;;;;;;;;;29.70;35.46;98928.44;1873346;76;20156;-63
2021/08/03 09:48:15;;;;;;;;;;;;;;;29.47;35.98;98925.50;1875152;76;20521;-63
2021/08/03 09:50:59;;;;;;;;;;;;;;;29.35;36.07;98925.83;1873482;76;20197;-64
2021/08/03 09:53:49;;;;;;;;;;;;;;;29.18;36.70;98917.67;1892694;76;20310;-61
2021/08/03 09:56:43;;;;;;;;;;;;;;;29.02;37.09;98916.94;1873390;76;20205;-63
2021/08/03 09:59:37;;;;;;;;;;;;;;;28.87;36.53;98915.28;1837745;77;20210;-63
2021/08/03 10:02:15;;;;;;;;;;;;;;;28.55;36.90;98918.22;1873290;76;20148;-64
2021/08/03 10:04:53;;;;;;;;;;;;;;;28.19;37.73;98914.70;1873416;76;20208;-64
2021/08/03 10:07:47;;;;;;;;;;;;;;;28.13;38.51;98909.30;1873383;76;20216;-64
2021/08/03 10:10:22;;;;;;;;;;;;;;;28.14;38.62;98904.40;1892721;76;20207;-63
2021/08/03 10:12:58;;;;;;;;;;;;;;;28.14;37.74;98905.73;1873427;76;20098;-64
2021/08/03 10:15:51;;;;;;;;;;;;;;;28.02;38.69;98909.98;1873356;76;20212;-63
2021/08/03 10:18:27;;;;;;;;;;;;;;;27.97;38.73;98913.39;1873370;76;20101;-65
2021/08/03 10:21:02;;;;;;;;;;;;;;;27.91;38.94;98912.42;1873353;76;20098;-65
2021/08/03 10:23:38;;;;;;;;;;;;;;;27.71;39.01;98905.66;1892763;76;20374;-64
2021/08/03 10:26:31;;;;;;;;;;;;;;;27.56;39.36;98906.59;1873374;76;20347;-64
2021/08/03 10:29:20;;;;;;;;;;;;;;;27.34;39.88;98907.00;1892753;76;20183;-65
2021/08/03 10:31:56;;;;;;;;;;;;;;;27.24;40.11;98889.45;1873269;76;20452;-63
2021/08/03 10:34:46;;;;;;;;;;;;;;;27.32;39.50;98904.42;1873468;76;20454;-64
2021/08/03 10:37:22;;;;;;;;;;;;;;;27.32;39.96;98900.92;1873445;76;20343;-63
2021/08/03 10:40:15;;;;;;;;;;;;;;;27.61;40.01;98895.23;1892765;76;20096;-63
2021/08/03 10:43:16;;;;;;;;;;;;;;;27.89;39.20;98901.92;1873461;76;20208;-64
2021/08/03 10:46:12;;;;;;;;;;;;;;;28.17;39.25;98892.27;1873436;76;20093;-63
2021/08/03 10:48:55;;;;;;;;;;;;;;;28.45;39.30;98901.17;1873474;76;20093;-63
2021/08/03 10:51:37;;;;;;;;;;;;;;;28.52;38.89;98895.83;1873270;76;20093;-63
2021/08/03 10:54:31;;;;;;;;;;;;;;;28.41;38.72;98896.97;1873348;76;20208;-65
2021/08/03 10:57:25;;;;;;;;;;;;;;;28.35;38.30;98895.08;1873427;76;20204;-63
2021/08/03 11:00:00;;;;;;;;;;;;;;;28.11;39.00;98895.28;1892781;76;20096;-65
2021/08/03 11:02:41;;;;;;;;;;;;;;;28.12;38.60;98895.67;1873442;76;20453;-63
2021/08/03 11:05:25;;;;;;;;;;;;;;;27.99;38.85;98899.56;1892814;76;20246;-64
2021/08/03 11:08:20;;;;;;;;;;;;;;;27.92;39.53;98900.40;1873599;76;20097;-64
2021/08/03 11:11:06;;;;;;;;;;;;;;;28.12;39.56;98898.33;1892767;76;20204;-64
2021/08/03 11:14:04;;;;;;;;;;;;;;;28.19;38.52;98903.64;1876399;75;20224;-64
2021/08/03 11:16:44;;;;;;;;;;;;;;;28.14;38.10;98897.77;1873439;76;20101;-63
2021/08/03 11:19:30;;;;;;;;;;;;;;;28.09;37.84;98898.53;1873480;76;20473;-64
2021/08/03 11:22:07;;;;;;;;;;;;;;;28.04;37.88;98898.80;1873191;76;20101;-62
2021/08/03 11:24:44;;;;;;;;;;;;;;;27.99;37.92;98898.23;1873224;76;20148;-63
2021/08/03 11:27:27;;;;;;;;;;;;;;;28.03;38.46;98894.42;1892779;76;20445;-63
2021/08/03 11:30:10;;;;;;;;;;;;;;;28.07;38.09;98891.13;1873364;76;20101;-64
2021/08/03 11:32:50;;;;;;;;;;;;;;;28.03;38.58;98895.75;1873467;76;20302;-65
2021/08/03 11:35:28;;;;;;;;;;;;;;;27.93;38.27;98891.48;1892737;76;20100;-63
2021/08/03 11:38:25;;;;;;;;;;;;;;;27.70;39.32;98879.59;1883090;75;20191;-62
2021/08/03 11:40:59;;;;;;;;;;;;;;;27.50;39.32;98891.88;1873447;76;20097;-66
2021/08/03 11:43:53;;;;;;;;;;;;;;;27.32;40.13;98887.67;1873412;76;20101;-65
2021/08/03 11:46:27;;;;;;;;;;;;;;;27.40;40.15;98880.12;1873446;76;20431;-65
2021/08/03 11:49:04;;;;;;;;;;;;;;;27.54;40.06;98884.13;1873424;76;20216;-63
2021/08/03 11:51:47;;;;;;;;;;;;;;;27.61;40.29;98884.63;1873175;76;20355;-63
2021/08/03 11:54:22;;;;;;;;;;;;;;;27.84;39.05;98889.41;1892765;76;20211;-63
2021/08/03 11:56:56;;;;;;;;;;;;;;;28.17;39.20;98889.61;1873490;76;20212;-63
2021/08/03 11:59:32;;;;;;;;;;;;;;;28.50;38.66;98895.09;1873437;76;20098;-63
2021/08/03 12:02:26;;;;;;;;;;;;;;;28.76;38.03;98896.91;1892724;76;20143;-62
2021/08/03 12:05:16;;;;;;;;;;;;;;;28.79;37.01;98879.92;1872638;76;20093;-61
2021/08/03 12:07:59;;;;;;;;;;;;;;;28.78;37.77;98874.25;1873453;76;20246;-63
2021/08/03 12:10:52;;;;;;;;;;;;;;;29.14;36.69;98878.95;1873414;76;20250;-63
2021/08/03 12:13:32;;;;;;;;;;;;;;;29.31;36.18;98887.14;1837867;77;20163;-63
2021/08/03 12:16:06;;;;;;;;;;;;;;;29.41;36.10;98883.35;1873484;76;20098;-63
2021/08/03 12:21:37;;;;;;;;;;;;;;;29.44;35.99;98876.52;1892734;76;20207;-63
2021/08/03 12:24:29;;;;;;;;;;;;;;;29.56;35.31;98878.31;1873509;76;20094;-64
2021/08/03 12:27:23;;;;;;;;;;;;;;;29.35;36.04;98870.48;1873486;76;20097;-63
2021/08/03 12:30:34;;;;;;;;;;;;;;;28.97;35.65;98873.87;1873193;76;20097;-63
2021/08/03 12:33:30;;;;;;;;;;;;;;;28.91;36.48;98863.66;1873297;76;20351;-63
2021/08/03 12:36:24;;;;;;;;;;;;;;;28.86;36.21;98872.41;1873433;76;20350;-64
2021/08/03 12:39:20;;;;;;;;;;;;;;;28.95;35.99;98867.35;1873505;76;20204;-63
2021/08/03 12:45:12;;;;;;;;;;;;;;;28.82;36.56;98865.59;1873470;76;20204;-64
2021/08/03 12:48:08;;;;;;;;;;;;;;;29.00;36.85;98868.34;1854577;76;20123;-63
2021/08/03 12:50:48;;;;;;;;;;;;;;;29.20;36.58;98862.59;1866018;76;20376;-64
2021/08/03 12:53:26;;;;;;;;;;;;;;;29.38;35.39;98861.81;1850477;76;20163;-63
2021/08/03 12:56:36;;;;;;;;;;;;;;;29.35;35.99;98868.67;1892624;76;20101;-62
2021/08/03 12:59:38;;;;;;;;;;;;;;;29.32;36.26;98866.23;1873031;76;20164;-65
2021/08/03 13:02:26;;;;;;;;;;;;;;;29.43;36.13;98869.48;1856550;76;20162;-64
2021/08/03 13:05:26;;;;;;;;;;;;;;;29.59;35.73;98867.50;1862855;76;20213;-63
2021/08/03 13:08:26;;;;;;;;;;;;;;;29.96;35.57;98862.77;1855425;76;20342;-64
2021/08/03 13:11:21;;;;;;;;;;;;;;;30.17;35.13;98851.91;1855681;76;20119;-62
2021/08/03 13:14:21;;;;;;;;;;;;;;;29.91;34.20;98873.73;1851987;76;20163;-63
2021/08/03 13:16:56;;;;;;;;;;;;;;;29.61;34.84;98872.20;1861522;76;20117;-63
2021/08/03 13:19:33;;;;;;;;;;;;;;;29.51;34.71;98877.78;1859036;76;20291;-65
2021/08/03 13:22:07;;;;;;;;;;;;;;;29.45;34.86;98892.84;1859451;76;20231;-65
2021/08/03 13:24:42;;;;;;;;;;;;;;;29.10;36.07;98900.03;1866482;76;20115;-63
2021/08/03 13:27:17;;;;;;;;;;;;;;;28.38;38.44;98874.60;1855826;76;20460;-63
2021/08/03 13:29:51;;;;;;;;;;;;;;;27.78;40.14;98875.16;1858841;76;20552;-64
2021/08/03 13:32:28;;;;;;;;;;;;;;;27.46;41.19;98882.42;1855807;76;20373;-63
2021/08/03 13:35:04;;;;;;;;;;;;;;;27.12;42.01;98891.45;1868650;76;20380;-63
2021/08/03 13:37:38;;;;;;;;;;;;;;;26.80;42.86;98891.52;1868365;76;20113;-65
2021/08/03 13:40:33;;;;;;;;;;;;;;;26.42;43.83;98884.75;1866347;76;20115;-64
2021/08/03 13:43:08;;;;;;;;;;;;;;;26.00;44.62;98893.22;1858351;76;20113;-64
2021/08/03 13:45:42;;;;;;;;;;;;;;;25.74;45.52;98903.34;1855884;76;20230;-62
2021/08/03 13:48:17;;;;;;;;;;;;;;;25.60;46.02;98893.98;1870488;76;20114;-62
2021/08/03 13:50:52;;;;;;;;;;;;;;;25.36;46.65;98899.19;1862245;76;20111;-64
2021/08/03 13:53:26;;;;;;;;;;;;;;;25.00;46.74;98896.09;1858703;76;20232;-63
2021/08/03 13:56:01;;;;;;;;;;;;;;;24.62;47.16;98896.16;1853098;76;20203;-64
2021/08/03 13:58:37;;;;;;;;;;;;;;;24.38;47.94;98886.28;1858677;76;20117;-62
2021/08/03 14:01:12;;;;;;;;;;;;;;;24.25;47.65;98899.19;1857363;76;20118;-65
2021/08/03 14:04:07;;;;;;;;;;;;;;;24.15;47.76;98908.44;1855330;76;20223;-63
2021/08/03 14:06:42;;;;;;;;;;;;;;;24.11;48.13;98906.86;1861137;76;20225;-64
2021/08/03 14:09:41;;;;;;;;;;;;;;;24.10;48.39;98910.43;1856268;76;20120;-63
2021/08/03 14:12:16;;;;;;;;;;;;;;;24.00;48.55;98920.06;1871204;76;20113;-62
2021/08/03 14:14:57;;;;;;;;;;;;;;;23.97;48.94;98927.26;1855511;76;20117;-62
2021/08/03 14:17:33;;;;;;;;;;;;;;;23.89;49.45;98932.88;1853666;76;20206;-63
2021/08/03 14:20:10;;;;;;;;;;;;;;;23.75;50.05;98935.23;1873373;76;20347;-63
2021/08/03 14:23:03;;;;;;;;;;;;;;;23.71;50.50;98935.81;1873383;76;20205;-63
2021/08/03 14:25:38;;;;;;;;;;;;;;;23.80;50.51;98934.11;1872243;76;20303;-64
2021/08/03 14:28:19;;;;;;;;;;;;;;;23.90;50.45;98939.84;1871440;76;20384;-63
2021/08/03 14:30:54;;;;;;;;;;;;;;;23.96;50.50;98938.23;1856809;76;20115;-64
2021/08/03 14:33:35;;;;;;;;;;;;;;;23.98;50.63;98935.55;1867059;76;20480;-63
2021/08/03 14:36:10;;;;;;;;;;;;;;;24.11;50.65;98933.22;1863560;76;20117;-63
2021/08/03 14:38:49;;;;;;;;;;;;;;;24.11;50.78;98927.95;1854821;76;20222;-64
2021/08/03 14:41:23;;;;;;;;;;;;;;;24.18;50.93;98908.30;1865108;76;20117;-65
2021/08/03 14:43:58;;;;;;;;;;;;;;;24.24;50.63;98914.13;1851894;76;20161;-63
2021/08/03 14:46:34;;;;;;;;;;;;;;;24.18;50.90;98914.41;1855979;76;20413;-64
2021/08/03 14:49:35;;;;;;;;;;;;;;;24.21;50.91;98910.78;1863731;76;20226;-63
2021/08/03 14:52:29;;;;;;;;;;;;;;;24.26;50.95;98916.70;1872563;76;20454;-63
2021/08/03 14:55:05;;;;;;;;;;;;;;;24.19;51.19;98921.86;1858401;76;20113;-63
2021/08/03 14:57:40;;;;;;;;;;;;;;;24.10;51.33;98920.97;1859975;76;20254;-63
2021/08/03 15:00:34;;;;;;;;;;;;;;;24.12;51.59;98915.14;1863808;76;20228;-63
2021/08/03 15:03:27;;;;;;;;;;;;;;;24.17;50.99;98918.43;1857656;76;20281;-63
2021/08/03 15:06:03;;;;;;;;;;;;;;;24.16;51.25;98920.22;1858038;76;20119;-65
2021/08/03 15:08:39;;;;;;;;;;;;;;;24.22;51.00;98923.91;1860144;76;20115;-63
2021/08/03 15:11:14;;;;;;;;;;;;;;;24.29;50.80;98920.52;1892563;76;20093;-64
2021/08/03 15:14:09;;;;;;;;;;;;;;;24.35;51.10;98906.18;1892300;76;20101;-62
2021/08/03 15:17:04;;;;;;;;;;;;;;;24.42;51.14;98917.70;1872929;76;20101;-63
2021/08/03 15:19:44;;;;;;;;;;;;;;;24.41;51.23;98913.36;1872354;76;20466;-63
2021/08/03 15:22:20;;;;;;;;;;;;;;;24.32;51.28;98912.45;1872840;76;20106;-62
2021/08/03 15:24:55;;;;;;;;;;;;;;;24.26;51.39;98908.79;1871810;76;20355;-63
2021/08/03 15:27:29;;;;;;;;;;;;;;;24.21;51.47;98909.00;1856032;76;20116;-63
2021/08/03 15:30:24;;;;;;;;;;;;;;;24.23;51.31;98910.26;1867683;76;20117;-64
2021/08/03 15:32:59;;;;;;;;;;;;;;;24.27;51.39;98913.13;1871554;76;20222;-64
2021/08/03 15:36:13;;;;;;;;;;;;;;;24.31;51.69;98909.44;1854131;76;20554;-63
2021/08/03 15:38:48;;;;;;;;;;;;;;;24.34;50.86;98906.65;1873250;76;20208;-62
2021/08/03 15:41:22;;;;;;;;;;;;;;;24.33;50.90;98910.23;1873199;76;20359;-63
2021/08/03 15:44:03;;;;;;;;;;;;;;;24.35;51.31;98904.42;1872144;76;20093;-63
2021/08/03 15:47:03;;;;;;;;;;;;;;;24.44;51.45;98908.41;1892512;76;20117;-62
2021/08/03 15:49:45;;;;;;;;;;;;;;;24.53;51.02;98905.85;1852422;76;20231;-65
2021/08/03 15:52:38;;;;;;;;;;;;;;;24.52;50.79;98901.48;1858160;76;20279;-64
2021/08/03 15:55:13;;;;;;;;;;;;;;;24.47;51.06;98897.30;1853573;76;20112;-64
2021/08/03 15:57:47;;;;;;;;;;;;;;;24.55;51.17;98903.97;1854978;76;20116;-64
2021/08/03 16:00:42;;;;;;;;;;;;;;;24.58;51.02;98903.84;1859607;76;20225;-63
2021/08/03 16:03:17;;;;;;;;;;;;;;;24.67;51.26;98899.44;1889917;76;20203;-64
2021/08/03 16:05:52;;;;;;;;;;;;;;;24.71;51.22;98897.52;1856927;76;20479;-63
2021/08/03 16:08:47;;;;;;;;;;;;;;;24.74;51.10;98898.69;1851510;76;20205;-63
2021/08/03 16:11:40;;;;;;;;;;;;;;;24.82;50.77;98894.73;1861639;76;20111;-63
2021/08/03 16:14:15;;;;;;;;;;;;;;;24.87;50.39;98895.37;1892694;76;20207;-63
2021/08/03 16:16:51;;;;;;;;;;;;;;;24.86;50.21;98892.83;1872887;76;20355;-64
2021/08/03 16:19:45;;;;;;;;;;;;;;;24.84;50.20;98894.20;1872699;76;20097;-64
2021/08/03 16:22:21;;;;;;;;;;;;;;;24.91;50.12;98902.70;1873224;76;20351;-63
2021/08/03 16:24:56;;;;;;;;;;;;;;;25.04;50.17;98906.91;1873409;76;20093;-62
2021/08/03 16:27:51;;;;;;;;;;;;;;;25.12;49.15;98908.23;1873321;76;20188;-63
2021/08/03 16:30:27;;;;;;;;;;;;;;;25.15;49.29;98909.86;1873367;76;20342;-64
2021/08/03 16:33:04;;;;;;;;;;;;;;;25.09;49.27;98907.53;1873530;76;20136;-62
2021/08/03 16:35:40;;;;;;;;;;;;;;;25.03;49.31;98918.38;1837780;77;20206;-64
2021/08/03 16:38:15;;;;;;;;;;;;;;;24.94;49.25;98913.09;1892751;76;20208;-64
2021/08/03 16:40:50;;;;;;;;;;;;;;;24.87;49.40;98919.13;1892786;76;20097;-63
2021/08/03 16:43:27;;;;;;;;;;;;;;;24.84;49.60;98917.96;1892730;76;20362;-64
2021/08/03 16:46:02;;;;;;;;;;;;;;;24.82;49.59;98923.77;1873402;76;20208;-64
2021/08/03 16:48:57;;;;;;;;;;;;;;;24.76;49.78;98929.36;1873215;76;20350;-64
2021/08/03 16:51:32;;;;;;;;;;;;;;;24.73;49.93;98931.27;1873437;76;20462;-63
2021/08/03 16:54:09;;;;;;;;;;;;;;;24.69;50.04;98925.30;1873206;76;20101;-64
2021/08/03 16:56:45;;;;;;;;;;;;;;;24.67;50.01;98927.14;1892742;76;20350;-62
2021/08/03 16:59:38;;;;;;;;;;;;;;;24.53;50.15;98929.59;1892684;76;20104;-64
2021/08/03 17:02:36;;;;;;;;;;;;;;;24.38;50.43;98927.17;1873429;76;20101;-64
2021/08/03 17:05:14;;;;;;;;;;;;;;;24.30;50.62;98924.88;1873402;76;20101;-63
2021/08/03 17:07:55;;;;;;;;;;;;;;;24.22;50.68;98932.27;1873385;76;20344;-63
2021/08/03 17:10:59;;;;;;;;;;;;;;;24.07;51.03;98927.24;1873381;76;20250;-63
2021/08/03 17:13:57;;;;;;;;;;;;;;;23.89;51.53;98931.55;1892723;76;20207;-65
2021/08/03 17:16:55;;;;;;;;;;;;;;;23.71;52.10;98927.02;1873395;76;20102;-62
2021/08/03 17:19:52;;;;;;;;;;;;;;;23.54;52.57;98931.25;1873351;76;20204;-64
2021/08/03 17:22:29;;;;;;;;;;;;;;;23.45;52.83;98929.00;1892714;76;20100;-63
2021/08/03 17:25:14;;;;;;;;;;;;;;;23.36;53.08;98939.94;1873328;76;20098;-63